createdAt,value
2019-01-19T00:01:23.398Z,-0.71
2019-01-19T00:04:22.161Z,-0.59
2019-01-19T00:07:29.284Z,-0.50
2019-01-19T00:10:36.279Z,-0.49
2019-01-19T00:13:49.703Z,-0.48
2019-01-19T00:17:03.935Z,-0.38
2019-01-19T00:19:56.399Z,-0.42
2019-01-19T00:22:56.360Z,-0.49
2019-01-19T00:25:49.735Z,-0.44
2019-01-19T00:28:31.484Z,-0.47
2019-01-19T00:31:23.615Z,-0.52
2019-01-19T00:34:40.291Z,-0.49
2019-01-19T00:37:56.745Z,-0.63
2019-01-19T00:40:57.373Z,-0.59
2019-01-19T00:44:09.226Z,-0.65
2019-01-19T00:47:28.979Z,-0.77
2019-01-19T00:50:32.461Z,-0.59
2019-01-19T00:53:40.482Z,-0.53
2019-01-19T00:56:42.636Z,-0.59
2019-01-19T00:59:17.463Z,-0.55
2019-01-19T01:02:36.439Z,-0.58
2019-01-19T01:05:11.714Z,-0.76
2019-01-19T01:08:08.884Z,-0.64
2019-01-19T01:11:16.049Z,-0.61
2019-01-19T01:14:20.058Z,-0.72
2019-01-19T01:17:21.036Z,-0.77
2019-01-19T01:20:22.251Z,-0.65
2019-01-19T01:23:26.324Z,-0.77
2019-01-19T01:26:34.006Z,-0.78
2019-01-19T01:29:48.020Z,-0.85
2019-01-19T01:32:24.659Z,-0.79
2019-01-19T01:35:42.122Z,-0.81
2019-01-19T01:38:52.200Z,-0.76
2019-01-19T01:42:13.676Z,-0.78
2019-01-19T01:45:24.904Z,-0.86
2019-01-19T01:48:26.329Z,-0.85
2019-01-19T01:51:21.816Z,-0.90
2019-01-19T01:54:33.210Z,-0.88
2019-01-19T01:57:09.911Z,-0.91
2019-01-19T02:00:26.231Z,-0.96
2019-01-19T02:03:38.950Z,-0.89
2019-01-19T02:06:27.367Z,-0.86
2019-01-19T02:09:52.428Z,-0.97
2019-01-19T02:12:53.262Z,-0.86
2019-01-19T02:16:01.100Z,-0.80
2019-01-19T02:18:56.105Z,-0.80
2019-01-19T02:21:49.155Z,-0.79
2019-01-19T02:24:50.234Z,-0.75
2019-01-19T02:27:55.366Z,-0.78
2019-01-19T02:30:49.142Z,-0.73
2019-01-19T02:34:12.397Z,-0.76
2019-01-19T02:37:23.691Z,-0.77
2019-01-19T02:40:10.649Z,-0.87
2019-01-19T02:43:23.905Z,-1.00
2019-01-19T02:46:37.428Z,-1.00
2019-01-19T02:49:41.625Z,-0.86
2019-01-19T02:52:33.084Z,-0.86
2019-01-19T02:55:39.299Z,-0.99
2019-01-19T02:58:48.185Z,-0.90
2019-01-19T03:01:55.460Z,-0.97
2019-01-19T03:04:50.777Z,-1.04
2019-01-19T03:07:45.571Z,-1.04
2019-01-19T03:11:09.308Z,-0.91
2019-01-19T03:14:08.258Z,-0.91
2019-01-19T03:17:04.931Z,-0.93
2019-01-19T03:20:37.913Z,-0.89
2019-01-19T03:23:46.599Z,-0.89
2019-01-19T03:27:00.254Z,-0.84
2019-01-19T03:30:20.453Z,-0.93
2019-01-19T03:33:28.133Z,-0.90
2019-01-19T03:36:40.629Z,-0.92
2019-01-19T03:39:50.228Z,-1.00
2019-01-19T03:42:56.115Z,-1.04
2019-01-19T03:46:09.507Z,-1.01
2019-01-19T03:49:08.966Z,-1.04
2019-01-19T03:51:49.916Z,-1.05
2019-01-19T03:54:35.418Z,-1.05
2019-01-19T03:57:32.149Z,-1.08
2019-01-19T04:00:40.175Z,-1.11
2019-01-19T04:03:45.938Z,-1.21
2019-01-19T04:06:49.407Z,-1.23
2019-01-19T04:10:17.301Z,-1.28
2019-01-19T04:13:46.759Z,-1.36
2019-01-19T04:16:47.357Z,-1.36
2019-01-19T04:19:52.984Z,-1.32
2019-01-19T04:22:48.248Z,-1.32
2019-01-19T04:25:28.638Z,-1.43
2019-01-19T04:28:00.565Z,-1.43
2019-01-19T04:30:30.842Z,-1.48
2019-01-19T04:33:01.101Z,-1.51
2019-01-19T04:35:31.364Z,-1.51
2019-01-19T04:38:01.630Z,-1.49
2019-01-19T04:40:31.878Z,-1.54
2019-01-19T04:43:02.145Z,-1.50
2019-01-19T04:45:32.415Z,-1.58
2019-01-19T04:48:02.651Z,-1.65
2019-01-19T04:50:32.873Z,-1.60
2019-01-19T04:53:03.142Z,-1.62
2019-01-19T04:55:33.435Z,-1.64
2019-01-19T04:58:03.683Z,-1.68
2019-01-19T05:00:33.925Z,-1.61
2019-01-19T05:03:04.269Z,-1.64
2019-01-19T05:05:34.529Z,-1.66
2019-01-19T05:08:04.767Z,-1.74
2019-01-19T05:10:35.027Z,-1.73
2019-01-19T05:13:05.271Z,-1.70
2019-01-19T05:15:35.545Z,-1.73
2019-01-19T05:18:06.395Z,-1.79
2019-01-19T05:20:39.546Z,-1.72
2019-01-19T05:23:10.804Z,-1.75
2019-01-19T05:25:41.171Z,-1.80
2019-01-19T05:28:11.505Z,-1.78
2019-01-19T05:30:41.710Z,-1.73
2019-01-19T05:33:11.976Z,-1.85
2019-01-19T05:35:42.212Z,-1.87
2019-01-19T05:38:12.477Z,-1.86
2019-01-19T05:40:42.841Z,-2.11
2019-01-19T05:43:13.328Z,-1.99
2019-01-19T05:45:43.589Z,-1.93
2019-01-19T05:48:13.859Z,-1.90
2019-01-19T05:50:44.191Z,-1.88
2019-01-19T05:53:14.931Z,-1.90
2019-01-19T05:55:45.184Z,-1.90
2019-01-19T05:58:15.459Z,-1.85
2019-01-19T06:00:45.744Z,-1.85
2019-01-19T06:03:16.005Z,-1.87
2019-01-19T06:05:46.571Z,-1.87
2019-01-19T06:08:19.864Z,-1.93
2019-01-19T06:10:51.172Z,-1.93
2019-01-19T06:13:21.452Z,-1.87
2019-01-19T06:15:51.723Z,-1.93
2019-01-19T06:18:21.982Z,-1.93
2019-01-19T06:20:52.883Z,-2.10
2019-01-19T06:23:23.155Z,-2.19
2019-01-19T06:25:53.450Z,-2.13
2019-01-19T06:28:23.678Z,-2.09
2019-01-19T06:30:53.970Z,-2.06
2019-01-19T06:33:24.285Z,-1.98
2019-01-19T06:35:54.545Z,-1.98
2019-01-19T06:38:24.814Z,-1.96
2019-01-19T06:40:55.094Z,-1.86
2019-01-19T06:43:25.373Z,-2.08
2019-01-19T06:45:55.706Z,-2.08
2019-01-19T06:48:25.988Z,-2.03
2019-01-19T06:50:56.254Z,-2.15
2019-01-19T06:53:26.572Z,-2.16
2019-01-19T06:55:56.871Z,-2.15
2019-01-19T06:58:27.124Z,-2.27
2019-01-19T07:00:57.457Z,-2.34
2019-01-19T07:03:27.708Z,-2.25
2019-01-19T07:05:57.984Z,-2.24
2019-01-19T07:08:28.245Z,-2.43
2019-01-19T07:10:58.583Z,-2.43
2019-01-19T07:13:28.867Z,-2.37
2019-01-19T07:15:58.132Z,-2.30
2019-01-19T07:18:27.252Z,-2.23
2019-01-19T07:20:56.380Z,-2.18
2019-01-19T07:23:25.524Z,-2.15
2019-01-19T07:25:55.665Z,-2.32
2019-01-19T07:28:25.963Z,-2.35
2019-01-19T07:30:56.290Z,-2.22
2019-01-19T07:33:26.605Z,-2.13
2019-01-19T07:35:56.886Z,-2.20
2019-01-19T07:38:27.167Z,-2.13
2019-01-19T07:40:57.513Z,-2.02
2019-01-19T07:43:28.237Z,-2.09
2019-01-19T07:45:58.567Z,-2.04
2019-01-19T07:48:28.846Z,-2.04
2019-01-19T07:50:59.118Z,-1.91
2019-01-19T07:53:29.442Z,-1.84
2019-01-19T07:55:59.710Z,-1.79
2019-01-19T07:58:29.955Z,-1.82
2019-01-19T08:01:00.258Z,-1.77
2019-01-19T08:03:30.574Z,-1.79
2019-01-19T08:06:00.944Z,-2.00
2019-01-19T08:08:31.254Z,-1.83
2019-01-19T08:11:01.596Z,-1.76
2019-01-19T08:13:31.903Z,-1.63
2019-01-19T08:16:02.280Z,-1.63
2019-01-19T08:18:33.550Z,-1.60
2019-01-19T08:21:03.863Z,-1.53
2019-01-19T08:23:34.197Z,-1.58
2019-01-19T08:26:04.564Z,-1.66
2019-01-19T08:28:34.855Z,-1.64
2019-01-19T08:31:05.279Z,-1.59
2019-01-19T08:33:35.594Z,-1.56
2019-01-19T08:36:06.420Z,-1.44
2019-01-19T08:38:36.761Z,-1.32
2019-01-19T08:41:07.074Z,-1.32
2019-01-19T08:43:43.459Z,-1.19
2019-01-19T08:46:13.751Z,-1.19
2019-01-19T08:48:44.095Z,-1.42
2019-01-19T08:51:14.470Z,-1.38
2019-01-19T08:53:44.999Z,-1.28
2019-01-19T08:56:15.302Z,-1.23
2019-01-19T08:58:45.598Z,-1.05
2019-01-19T09:01:15.884Z,-0.99
2019-01-19T09:03:46.390Z,-0.88
2019-01-19T09:06:16.669Z,-0.86
2019-01-19T09:08:47.106Z,-1.00
2019-01-19T09:11:17.399Z,-1.00
2019-01-19T09:13:47.650Z,-0.98
2019-01-19T09:16:20.599Z,-1.08
2019-01-19T09:18:51.010Z,-1.11
2019-01-19T09:21:22.471Z,-1.11
2019-01-19T09:24:04.807Z,-1.14
2019-01-19T09:26:35.126Z,-1.13
2019-01-19T09:29:05.423Z,-1.02
2019-01-19T09:31:35.705Z,-0.97
2019-01-19T09:34:05.999Z,-1.28
2019-01-19T09:36:36.395Z,-1.24
2019-01-19T09:39:10.773Z,-1.11
2019-01-19T09:41:42.472Z,-0.98
2019-01-19T09:44:12.879Z,-0.88
2019-01-19T09:46:43.365Z,-0.76
2019-01-19T09:49:13.686Z,-0.76
2019-01-19T09:51:44.021Z,-0.76
2019-01-19T09:54:14.335Z,-0.63
2019-01-19T09:56:44.675Z,-0.57
2019-01-19T09:59:14.936Z,-0.75
2019-01-19T10:01:46.591Z,-0.66
2019-01-19T10:04:16.883Z,-0.75
2019-01-19T10:06:48.237Z,-0.76
2019-01-19T10:09:18.624Z,-0.56
2019-01-19T10:11:48.881Z,-0.51
2019-01-19T10:14:19.216Z,-0.50
2019-01-19T10:16:49.746Z,-0.43
2019-01-19T10:19:20.065Z,-0.25
2019-01-19T10:21:50.445Z,-0.14
2019-01-19T10:24:20.765Z,-0.09
2019-01-19T10:26:51.139Z,-0.05
2019-01-19T10:29:21.562Z,0.02
2019-01-19T10:31:51.817Z,0.14
2019-01-19T10:34:22.096Z,0.21
2019-01-19T10:36:52.391Z,0.29
2019-01-19T10:39:22.675Z,0.44
2019-01-19T10:41:52.957Z,0.57
2019-01-19T10:44:23.265Z,0.53
2019-01-19T10:46:53.584Z,0.64
2019-01-19T10:49:23.928Z,0.69
2019-01-19T10:51:59.364Z,0.63
2019-01-19T10:54:26.201Z,0.80
2019-01-19T10:56:56.551Z,0.81
2019-01-19T10:59:26.821Z,0.78
2019-01-19T11:01:57.094Z,0.91
2019-01-19T11:04:27.396Z,1.16
2019-01-19T11:06:57.802Z,1.44
2019-01-19T11:09:28.118Z,1.80
2019-01-19T11:11:58.413Z,2.09
2019-01-19T11:14:28.775Z,2.45
2019-01-19T11:17:17.980Z,2.77
2019-01-19T11:19:49.051Z,3.06
2019-01-19T11:22:19.309Z,3.37
2019-01-19T11:24:49.814Z,3.68
2019-01-19T11:27:20.067Z,3.93
2019-01-19T11:29:50.656Z,4.20
2019-01-19T11:32:20.930Z,4.51
2019-01-19T11:34:51.288Z,4.92
2019-01-19T11:37:21.551Z,4.97
2019-01-19T11:39:51.954Z,4.95
2019-01-19T11:42:22.215Z,4.79
2019-01-19T11:44:52.487Z,5.20
2019-01-19T11:47:22.809Z,5.39
2019-01-19T11:49:53.162Z,5.53
2019-01-19T11:52:24.998Z,5.49
2019-01-19T11:54:55.268Z,5.49
2019-01-19T11:57:26.519Z,5.64
2019-01-19T11:59:56.825Z,5.83
2019-01-19T12:02:27.126Z,5.99
2019-01-19T12:04:57.437Z,6.21
2019-01-19T12:07:27.770Z,6.34
2019-01-19T12:09:58.046Z,6.42
2019-01-19T12:12:28.475Z,6.48
2019-01-19T12:14:58.827Z,6.77
2019-01-19T12:17:29.161Z,6.60
2019-01-19T12:19:59.443Z,6.19
2019-01-19T12:22:29.702Z,6.49
2019-01-19T12:25:00.034Z,5.89
2019-01-19T12:27:30.302Z,5.68
2019-01-19T12:30:00.597Z,5.66
2019-01-19T12:32:31.100Z,5.92
2019-01-19T12:35:01.524Z,6.16
2019-01-19T12:37:31.943Z,6.06
2019-01-19T12:40:02.246Z,6.12
2019-01-19T12:42:32.565Z,5.99
2019-01-19T12:45:02.859Z,6.10
2019-01-19T12:47:33.242Z,5.98
2019-01-19T12:50:04.437Z,5.44
2019-01-19T12:52:34.723Z,5.50
2019-01-19T12:55:05.380Z,5.02
2019-01-19T12:57:35.653Z,4.61
2019-01-19T13:00:06.852Z,4.46
2019-01-19T13:02:37.143Z,4.96
2019-01-19T13:05:14.936Z,4.45
2019-01-19T13:07:45.341Z,4.92
2019-01-19T13:10:25.526Z,5.19
2019-01-19T13:13:03.062Z,5.42
2019-01-19T13:16:29.744Z,5.50
2019-01-19T13:19:15.007Z,5.61
2019-01-19T13:22:40.495Z,5.62
2019-01-19T13:25:52.029Z,5.57
2019-01-19T13:28:52.560Z,5.51
2019-01-19T13:31:45.813Z,5.45
2019-01-19T13:35:03.141Z,5.38
2019-01-19T13:38:20.829Z,5.43
2019-01-19T13:41:42.848Z,5.40
2019-01-19T13:44:39.995Z,5.31
2019-01-19T13:47:58.617Z,4.99
2019-01-19T13:51:02.015Z,5.06
2019-01-19T13:54:12.805Z,4.80
2019-01-19T13:57:11.779Z,4.19
2019-01-19T13:59:57.749Z,4.10
2019-01-19T14:03:15.020Z,3.85
2019-01-19T14:06:29.299Z,3.96
2019-01-19T14:09:36.762Z,3.80
2019-01-19T14:12:47.986Z,3.33
2019-01-19T14:15:24.028Z,3.11
2019-01-19T14:18:07.633Z,2.76
2019-01-19T14:21:21.807Z,2.74
2019-01-19T14:24:13.182Z,2.81
2019-01-19T14:27:10.343Z,2.79
2019-01-19T14:30:07.951Z,2.83
2019-01-19T14:33:14.072Z,2.78
2019-01-19T14:36:16.833Z,2.68
2019-01-19T14:39:17.608Z,2.50
2019-01-19T14:42:19.306Z,2.57
2019-01-19T14:45:22.720Z,2.51
2019-01-19T14:48:30.501Z,2.44
2019-01-19T14:51:28.315Z,2.25
2019-01-19T14:54:58.854Z,2.44
2019-01-19T14:57:48.269Z,2.52
2019-01-19T15:00:55.288Z,2.19
2019-01-19T15:04:05.388Z,2.35
2019-01-19T15:07:03.984Z,2.41
2019-01-19T15:10:21.588Z,2.40
2019-01-19T15:13:36.312Z,2.32
2019-01-19T15:16:29.142Z,2.35
2019-01-19T15:19:35.440Z,2.29
2019-01-19T15:22:40.670Z,2.21
2019-01-19T15:26:01.311Z,1.99
2019-01-19T15:29:12.830Z,1.85
2019-01-19T15:32:09.525Z,1.82
2019-01-19T15:35:15.978Z,1.73
2019-01-19T15:38:46.576Z,1.76
2019-01-19T15:42:06.029Z,1.73
2019-01-19T15:45:04.231Z,1.67
2019-01-19T15:48:18.084Z,1.55
2019-01-19T15:51:38.741Z,1.49
2019-01-19T15:55:02.172Z,1.51
2019-01-19T15:58:00.944Z,1.45
2019-01-19T16:03:55.273Z,1.32
2019-01-19T16:06:51.230Z,1.19
2019-01-19T16:10:16.712Z,1.18
2019-01-19T16:13:25.134Z,1.13
2019-01-19T16:16:41.269Z,1.06
2019-01-19T16:19:53.387Z,0.96
2019-01-19T16:22:54.370Z,0.89
2019-01-19T16:26:18.117Z,0.80
2019-01-19T16:29:25.197Z,0.70
2019-01-19T16:32:32.013Z,0.67
2019-01-19T16:35:30.056Z,0.67
2019-01-19T16:38:10.631Z,0.65
2019-01-19T16:41:24.933Z,0.49
2019-01-19T16:44:18.641Z,0.53
2019-01-19T16:47:15.209Z,0.54
2019-01-19T16:50:07.839Z,0.49
2019-01-19T16:53:06.393Z,0.45
2019-01-19T16:56:09.670Z,0.41
2019-01-19T16:59:19.772Z,0.33
2019-01-19T17:02:16.210Z,0.23
2019-01-19T17:05:24.094Z,0.25
2019-01-19T17:08:42.838Z,0.31
2019-01-19T17:12:00.302Z,0.23
2019-01-19T17:15:20.489Z,0.23
2019-01-19T17:18:26.807Z,0.25
2019-01-19T17:21:59.568Z,0.24
2019-01-19T17:25:22.391Z,0.20
2019-01-19T17:28:39.944Z,0.17
2019-01-19T17:31:53.318Z,0.17
2019-01-19T17:34:45.499Z,0.13
2019-01-19T17:37:39.106Z,0.09
2019-01-19T17:40:38.775Z,0.02
2019-01-19T17:43:41.761Z,-0.08
2019-01-19T17:46:40.165Z,-0.03
2019-01-19T17:49:50.218Z,-0.07
2019-01-19T17:53:10.508Z,-0.11
2019-01-19T17:56:11.487Z,-0.14
2019-01-19T17:59:21.350Z,-0.23
2019-01-19T18:02:44.852Z,-0.16
2019-01-19T18:05:42.318Z,-0.27
2019-01-19T18:08:46.057Z,-0.26
2019-01-19T18:11:52.989Z,-0.56
2019-01-19T18:14:55.839Z,-0.38
2019-01-19T18:18:01.214Z,-0.47
2019-01-19T18:21:14.523Z,-0.50
2019-01-19T18:24:26.028Z,-0.38
2019-01-19T18:27:49.606Z,-0.38
2019-01-19T18:30:42.354Z,-0.38
2019-01-19T18:33:35.795Z,-0.41
2019-01-19T18:36:56.272Z,-0.48
2019-01-19T18:40:25.496Z,-0.48
2019-01-19T18:43:30.413Z,-0.46
2019-01-19T18:46:41.607Z,-0.52
2019-01-19T18:49:41.307Z,-0.48
2019-01-19T18:52:23.114Z,-0.50
2019-01-19T18:55:25.876Z,-0.49
2019-01-19T18:58:37.592Z,-0.51
2019-01-19T19:01:53.251Z,-0.54
2019-01-19T19:05:09.513Z,-0.58
2019-01-19T19:08:18.234Z,-0.59
2019-01-19T19:11:24.563Z,-0.70
2019-01-19T19:14:06.740Z,-0.79
2019-01-19T19:17:22.470Z,-0.89
2019-01-19T19:20:27.243Z,-0.91
2019-01-19T19:23:37.365Z,-0.95
2019-01-19T19:27:03.551Z,-0.97
2019-01-19T19:29:55.787Z,-0.98
2019-01-19T19:32:55.334Z,-1.03
2019-01-19T19:36:19.496Z,-1.03
2019-01-19T19:39:35.848Z,-1.02
2019-01-19T19:42:34.741Z,-1.16
2019-01-19T19:45:40.534Z,-1.19
2019-01-19T19:49:09.887Z,-1.16
2019-01-19T19:52:00.642Z,-1.23
2019-01-19T19:54:33.541Z,-1.17
2019-01-19T19:57:04.475Z,-1.13
2019-01-19T19:59:34.804Z,-1.11
2019-01-19T20:02:05.169Z,-1.18
2019-01-19T20:04:35.483Z,-1.18
2019-01-19T20:07:06.472Z,-1.21
2019-01-19T20:09:37.000Z,-1.22
2019-01-19T20:12:08.395Z,-1.29
2019-01-19T20:14:38.759Z,-1.42
2019-01-19T20:17:09.471Z,-1.40
2019-01-19T20:19:39.935Z,-1.42
2019-01-19T20:22:10.245Z,-1.48
2019-01-19T20:24:40.579Z,-1.52
2019-01-19T20:27:10.966Z,-1.58
2019-01-19T20:29:41.376Z,-1.64
2019-01-19T20:32:11.661Z,-1.63
2019-01-19T20:34:42.037Z,-1.58
2019-01-19T20:37:12.347Z,-1.65
2019-01-19T20:39:42.842Z,-1.72
2019-01-19T20:42:13.329Z,-1.74
2019-01-19T20:44:43.663Z,-1.77
2019-01-19T20:47:14.030Z,-1.80
2019-01-19T20:49:44.398Z,-1.80
2019-01-19T20:52:14.739Z,-1.83
2019-01-19T20:54:45.320Z,-1.87
2019-01-19T20:57:15.763Z,-1.88
2019-01-19T20:59:46.227Z,-1.86
2019-01-19T21:02:16.532Z,-1.90
2019-01-19T21:04:46.876Z,-1.94
2019-01-19T21:07:17.210Z,-1.97
2019-01-19T21:09:47.578Z,-2.01
2019-01-19T21:12:17.938Z,-2.00
2019-01-19T21:14:48.253Z,-1.94
2019-01-19T21:17:18.615Z,-1.86
2019-01-19T21:19:49.019Z,-1.86
2019-01-19T21:22:19.478Z,-1.85
2019-01-19T21:24:49.813Z,-1.90
2019-01-19T21:27:20.277Z,-1.90
2019-01-19T21:29:50.634Z,-1.91
2019-01-19T21:32:22.150Z,-1.91
2019-01-19T21:34:52.488Z,-1.89
2019-01-19T21:37:22.833Z,-1.92
2019-01-19T21:39:53.149Z,-1.93
2019-01-19T21:42:23.526Z,-1.99
2019-01-19T21:44:53.926Z,-2.10
2019-01-19T21:47:24.289Z,-2.24
2019-01-19T21:49:54.624Z,-2.32
2019-01-19T21:52:24.938Z,-2.34
2019-01-19T21:54:55.370Z,-2.26
2019-01-19T21:57:25.653Z,-2.34
2019-01-19T21:59:55.988Z,-2.33
2019-01-19T22:02:26.319Z,-2.35
2019-01-19T22:04:56.669Z,-2.34
2019-01-19T22:07:27.038Z,-2.29
2019-01-19T22:09:57.370Z,-2.28
2019-01-19T22:12:27.769Z,-2.27
2019-01-19T22:14:58.110Z,-2.28
2019-01-19T22:17:28.448Z,-2.27
2019-01-19T22:19:58.781Z,-2.28
2019-01-19T22:22:29.204Z,-2.32
2019-01-19T22:24:59.632Z,-2.30
2019-01-19T22:27:30.325Z,-2.36
2019-01-19T22:30:00.643Z,-2.37
2019-01-19T22:32:31.075Z,-2.36
2019-01-19T22:35:01.358Z,-2.41
2019-01-19T22:37:31.741Z,-2.42
2019-01-19T22:40:02.076Z,-2.42
2019-01-19T22:42:32.480Z,-2.47
2019-01-19T22:45:02.841Z,-2.52
2019-01-19T22:47:35.607Z,-2.51
2019-01-19T22:50:09.207Z,-2.54
2019-01-19T22:52:39.625Z,-2.60
2019-01-19T22:55:10.680Z,-2.74
2019-01-19T22:57:41.351Z,-2.78
2019-01-19T23:01:11.118Z,-2.74
2019-01-19T23:03:41.931Z,-2.67
2019-01-19T23:06:12.293Z,-2.66
2019-01-19T23:08:42.647Z,-2.71
2019-01-19T23:11:13.060Z,-2.86
2019-01-19T23:13:43.366Z,-2.88
2019-01-19T23:16:13.677Z,-2.91
2019-01-19T23:18:43.967Z,-2.87
2019-01-19T23:21:14.310Z,-2.81
2019-01-19T23:23:44.586Z,-2.84
2019-01-19T23:26:15.221Z,-2.84
2019-01-19T23:28:45.511Z,-2.84
2019-01-19T23:31:15.792Z,-2.90
2019-01-19T23:33:46.094Z,-2.92
2019-01-19T23:36:16.367Z,-2.91
2019-01-19T23:38:48.059Z,-2.92
2019-01-19T23:41:18.441Z,-2.92
2019-01-19T23:43:48.759Z,-2.91
2019-01-19T23:46:19.030Z,-2.91
2019-01-19T23:48:49.333Z,-2.96
2019-01-19T23:51:19.668Z,-3.02
2019-01-19T23:53:49.938Z,-3.24
2019-01-19T23:56:20.336Z,-3.24
2019-01-19T23:58:50.598Z,-3.37
